Time;durP1;ratioP1;P1;durP2;ratioP2;P2;SDS_P1;SDS_P2;PMS_P1;PMS_P2;Temp;Humidity;BMP_temperature;BMP_pressure;BME280_temperature;BME280_humidity;BME280_pressure;Samples;Min_cycle;Max_cycle;Signal;HPM_P1;HPM_P2
2021/09/28 00:05:56;;;;;;;12.58;5.60;;;;;;;14.52;80.93;100890.45;21853269;78;99668;-84
2021/09/28 00:35:57;;;;;;;14.68;6.83;;;;;;;14.20;81.83;100877.10;21976612;77;101045;-85
2021/09/28 01:05:59;;;;;;;13.45;7.12;;;;;;;14.20;81.83;100877.10;22289682;77;99714;-86
2021/09/28 01:36:00;;;;;;;15.08;6.97;;;;;;;14.13;82.46;100888.70;22327766;77;99740;-85
2021/09/28 02:06:01;;;;;;;16.65;7.17;;;;;;;13.95;83.01;100898.91;22210234;78;99759;-85
2021/09/28 02:36:02;;;;;;;18.23;7.25;;;;;;;13.85;83.28;100897.66;22184934;78;99622;-86
2021/09/28 03:06:05;;;;;;;16.35;7.25;;;;;;;13.62;84.04;100902.67;22238618;78;99254;-85
2021/09/28 03:36:06;;;;;;;13.38;6.74;;;;;;;13.57;84.57;100901.64;22336966;77;99434;-85
2021/09/28 04:06:07;;;;;;;;;;;;;;;13.52;85.02;100926.12;22485977;77;99616;-86
2021/09/28 04:36:08;;;;;;;12.53;7.20;;;;;;;13.55;85.72;100935.81;22257953;77;85624;-86
2021/09/28 05:06:09;;;;;;;15.50;7.20;;;;;;;13.69;85.18;100957.25;22030146;78;99570;-85
2021/09/28 05:36:10;;;;;;;14.60;7.20;;;;;;;13.77;85.06;100969.94;22102261;78;99429;-85
2021/09/28 06:06:11;;;;;;;15.03;8.08;;;;;;;13.80;85.04;100981.63;22437310;77;101133;-86
2021/09/28 06:36:12;;;;;;;14.18;8.55;;;;;;;13.98;85.45;100988.87;22301795;77;99833;-83
2021/09/28 07:06:16;;;;;;;22.15;8.83;;;;;;;14.60;84.99;101008.39;22273658;77;99493;-82
2021/09/28 07:36:17;;;;;;;16.90;8.20;;;;;;;15.19;83.57;101021.63;22311855;77;144088;-82
2021/09/28 08:06:18;;;;;;;17.97;9.20;;;;;;;15.60;82.37;101054.78;22266972;77;115826;-82
2021/09/28 08:36:19;;;;;;;18.33;9.37;;;;;;;15.90;81.68;101084.93;22512640;77;99842;-82
2021/09/28 09:06:34;;;;;;;20.10;10.07;;;;;;;16.21;80.74;101096.62;22272606;77;99769;-81
2021/09/28 09:36:37;;;;;;;19.90;11.00;;;;;;;16.36;80.74;101102.36;22393215;77;109839;-82
2021/09/28 10:06:38;;;;;;;19.63;10.60;;;;;;;16.57;81.00;101119.02;22449148;77;99737;-81
2021/09/28 10:36:52;;;;;;;23.13;11.33;;;;;;;16.48;81.01;101129.16;22298138;77;107028;-81
2021/09/28 11:06:56;;;;;;;26.70;11.78;;;;;;;16.74;81.98;101142.59;22341440;77;100103;-81
2021/09/28 11:37:01;;;;;;;22.22;11.43;;;;;;;17.82;80.47;101150.27;22397553;77;112094;-81
2021/09/28 12:07:11;;;;;;;24.33;12.53;;;;;;;18.24;78.62;101130.41;22354568;76;99717;-80
2021/09/28 12:37:11;;;;;;;22.57;11.43;;;;;;;19.01;77.90;101120.66;22282461;77;99954;-81
2021/09/28 13:07:13;;;;;;;16.50;9.10;;;;;;;19.60;74.63;101135.84;22053790;78;99910;-82
2021/09/28 13:37:14;;;;;;;23.77;10.10;;;;;;;19.37;74.19;101141.36;22020117;79;147437;-82
2021/09/28 14:07:16;;;;;;;19.02;9.90;;;;;;;19.67;74.01;101147.53;22010060;78;102462;-82
2021/09/28 14:37:17;;;;;;;18.27;7.97;;;;;;;19.50;73.46;101133.99;22031441;79;100507;-81
2021/09/28 15:07:19;;;;;;;14.87;6.85;;;;;;;18.97;73.48;101126.10;21980185;78;99682;-79
2021/09/28 15:37:20;;;;;;;15.98;7.45;;;;;;;18.80;73.75;101144.61;22040523;78;99720;-81
2021/09/28 16:07:22;;;;;;;17.27;9.33;;;;;;;18.57;74.40;101141.68;22039275;78;99809;-82
2021/09/28 16:37:23;;;;;;;15.23;6.57;;;;;;;18.28;75.56;101164.03;22031639;78;99580;-82
2021/09/28 17:07:24;;;;;;;17.98;6.62;;;;;;;17.92;77.08;101175.25;22039757;78;100227;-87
2021/09/28 17:37:28;;;;;;;17.37;6.60;;;;;;;17.63;77.07;101164.70;22028559;79;99683;-86
2021/09/28 18:07:29;;;;;;;17.70;7.20;;;;;;;17.45;77.06;101178.70;21857497;79;99369;-85
2021/09/28 18:37:39;;;;;;;17.20;6.97;;;;;;;17.23;77.23;101168.84;21805325;80;108339;-85
2021/09/28 19:07:50;;;;;;;17.70;9.05;;;;;;;16.92;77.35;101177.30;21860266;77;99598;-86
2021/09/28 19:37:45;;;;;;;16.13;8.23;;;;;;;16.65;77.33;101180.34;21904783;79;99505;-85
2021/09/28 20:37:46;;;;;;;13.30;6.78;;;;;;;16.43;75.89;101189.31;21988065;79;120154;-84
2021/09/28 21:07:47;;;;;;;;;;;;;;;16.33;75.58;101189.27;21826782;79;99756;-83
2021/09/28 21:37:48;;;;;;;11.57;6.35;;;;;;;16.09;75.63;101188.67;21759588;78;85523;-85
2021/09/28 22:07:49;;;;;;;13.10;7.17;;;;;;;15.81;76.03;101169.98;21745710;79;99754;-84
2021/09/28 22:37:50;;;;;;;;;;;;;;;15.30;76.22;101183.88;21751623;79;99833;-83
2021/09/28 23:07:51;;;;;;;11.55;7.12;;;;;;;14.65;77.44;101201.14;21960889;78;94604;-83
2021/09/28 23:37:58;;;;;;;20.40;8.08;;;;;;;14.18;78.00;101208.08;22058070;78;99789;-85
